createdAt,value
2018-07-23T00:00:23.603Z,19.30
2018-07-23T00:00:57.486Z,19.30
2018-07-23T00:01:31.365Z,19.30
2018-07-23T00:02:05.260Z,19.30
2018-07-23T00:02:39.145Z,19.30
2018-07-23T00:03:13.333Z,19.30
2018-07-23T00:03:47.511Z,19.30
2018-07-23T00:04:21.717Z,19.30
2018-07-23T00:04:55.577Z,19.30
2018-07-23T00:05:30.050Z,19.30
2018-07-23T00:06:04.237Z,19.20
2018-07-23T00:06:38.133Z,19.30
2018-07-23T00:07:12.029Z,19.20
2018-07-23T00:07:45.892Z,19.20
2018-07-23T00:08:19.741Z,19.20
2018-07-23T00:08:53.605Z,19.20
2018-07-23T00:09:27.820Z,19.20
2018-07-23T00:10:01.723Z,19.20
2018-07-23T00:10:35.973Z,19.10
2018-07-23T00:11:43.745Z,19.10
2018-07-23T00:12:17.613Z,19.10
2018-07-23T00:12:51.813Z,19.10
2018-07-23T00:13:26.007Z,19.10
2018-07-23T00:13:59.893Z,19.10
2018-07-23T00:14:33.803Z,19.10
2018-07-23T00:15:08.699Z,19.10
2018-07-23T00:15:42.911Z,19.10
2018-07-23T00:16:17.121Z,19.10
2018-07-23T00:16:50.999Z,19.10
2018-07-23T00:17:24.923Z,19.10
2018-07-23T00:17:58.795Z,19.10
2018-07-23T00:18:32.696Z,19.10
2018-07-23T00:19:06.955Z,19.10
2018-07-23T00:19:40.845Z,19.10
2018-07-23T00:20:14.891Z,19.00
2018-07-23T00:20:48.798Z,19.10
2018-07-23T00:21:22.674Z,19.00
2018-07-23T00:21:56.944Z,19.00
2018-07-23T00:23:04.523Z,19.00
2018-07-23T00:23:38.706Z,19.00
2018-07-23T00:24:12.628Z,19.00
2018-07-23T00:24:46.510Z,19.00
2018-07-23T00:25:20.409Z,19.00
2018-07-23T00:25:54.307Z,19.00
2018-07-23T00:26:28.179Z,19.00
2018-07-23T00:27:02.047Z,19.00
2018-07-23T00:27:35.978Z,19.00
2018-07-23T00:28:09.883Z,19.00
2018-07-23T00:28:43.755Z,19.00
2018-07-23T00:29:17.963Z,19.00
2018-07-23T00:29:52.135Z,18.90
2018-07-23T00:30:26.008Z,19.00
2018-07-23T00:30:59.889Z,18.90
2018-07-23T00:31:33.765Z,18.90
2018-07-23T00:32:07.688Z,18.90
2018-07-23T00:32:41.587Z,18.90
2018-07-23T00:33:15.835Z,18.90
2018-07-23T00:33:49.853Z,18.90
2018-07-23T00:34:23.736Z,18.90
2018-07-23T00:34:57.573Z,18.90
2018-07-23T00:35:31.515Z,18.90
2018-07-23T00:36:05.487Z,18.90
2018-07-23T00:36:39.388Z,18.80
2018-07-23T00:37:13.281Z,18.80
2018-07-23T00:37:47.500Z,18.80
2018-07-23T00:38:21.515Z,18.80
2018-07-23T00:38:55.371Z,18.80
2018-07-23T00:39:29.594Z,18.80
2018-07-23T00:40:03.521Z,18.80
2018-07-23T00:40:37.356Z,18.80
2018-07-23T00:41:11.665Z,18.80
2018-07-23T00:41:45.837Z,18.80
2018-07-23T00:42:20.092Z,18.80
2018-07-23T00:42:53.998Z,18.80
2018-07-23T00:43:28.213Z,18.70
2018-07-23T00:44:02.095Z,18.80
2018-07-23T00:44:35.981Z,18.70
2018-07-23T00:45:10.450Z,18.70
2018-07-23T00:45:44.697Z,18.70
2018-07-23T00:46:18.923Z,18.70
2018-07-23T00:46:52.797Z,18.70
2018-07-23T00:47:26.759Z,18.70
2018-07-23T00:48:01.048Z,18.70
2018-07-23T00:48:34.920Z,18.70
2018-07-23T00:49:08.822Z,18.70
2018-07-23T00:49:43.073Z,18.70
2018-07-23T00:50:16.950Z,18.70
2018-07-23T00:50:57.359Z,18.70
2018-07-23T00:51:31.259Z,18.70
2018-07-23T00:52:05.677Z,18.60
2018-07-23T00:52:39.868Z,18.60
2018-07-23T00:53:13.776Z,18.60
2018-07-23T00:53:47.986Z,18.60
2018-07-23T00:54:21.858Z,18.60
2018-07-23T00:54:55.740Z,18.60
2018-07-23T00:55:29.633Z,18.60
2018-07-23T00:56:03.469Z,18.60
2018-07-23T00:56:37.724Z,18.60
2018-07-23T00:57:11.581Z,18.60
2018-07-23T00:57:45.604Z,18.60
2018-07-23T00:58:19.452Z,18.60
2018-07-23T00:58:53.339Z,18.60
2018-07-23T00:59:27.218Z,18.60
2018-07-23T01:00:01.415Z,18.60
2018-07-23T01:00:35.316Z,18.60
2018-07-23T01:01:09.547Z,18.60
2018-07-23T01:01:43.484Z,18.50
2018-07-23T01:02:17.782Z,18.60
2018-07-23T01:02:51.628Z,18.50
2018-07-23T01:03:25.486Z,18.60
2018-07-23T01:03:59.396Z,18.50
2018-07-23T01:04:33.604Z,18.60
2018-07-23T01:05:07.866Z,18.60
2018-07-23T01:05:42.115Z,18.50
2018-07-23T01:06:16.327Z,18.60
2018-07-23T01:06:50.247Z,18.50
2018-07-23T01:07:24.324Z,18.50
2018-07-23T01:07:58.221Z,18.50
2018-07-23T01:08:32.444Z,18.50
2018-07-23T01:09:09.204Z,18.60
2018-07-23T01:09:43.124Z,18.50
2018-07-23T01:10:17.360Z,18.60
2018-07-23T01:10:51.280Z,18.50
2018-07-23T01:11:25.172Z,18.50
2018-07-23T01:11:59.080Z,18.50
2018-07-23T01:12:34.698Z,18.50
2018-07-23T01:13:09.013Z,18.50
2018-07-23T01:13:43.082Z,18.50
2018-07-23T01:14:17.286Z,18.50
2018-07-23T01:14:51.470Z,18.50
2018-07-23T01:15:25.318Z,18.50
2018-07-23T01:15:59.560Z,18.50
2018-07-23T01:16:34.111Z,18.50
2018-07-23T01:17:08.090Z,18.50
2018-07-23T01:17:41.961Z,18.50
2018-07-23T01:18:15.870Z,18.50
2018-07-23T01:18:49.732Z,18.50
2018-07-23T01:19:23.653Z,18.50
2018-07-23T01:19:58.831Z,18.50
2018-07-23T01:20:33.054Z,18.50
2018-07-23T01:21:07.596Z,18.40
2018-07-23T01:21:41.826Z,18.40
2018-07-23T01:22:15.755Z,18.40
2018-07-23T01:22:49.644Z,18.40
2018-07-23T01:23:23.859Z,18.40
2018-07-23T01:23:57.738Z,18.40
2018-07-23T01:24:31.594Z,18.40
2018-07-23T01:25:06.158Z,18.40
2018-07-23T01:25:40.058Z,18.40
2018-07-23T01:26:14.723Z,18.40
2018-07-23T01:26:48.594Z,18.40
2018-07-23T01:27:22.798Z,18.40
2018-07-23T01:27:56.996Z,18.40
2018-07-23T01:28:30.846Z,18.40
2018-07-23T01:29:05.047Z,18.40
2018-07-23T01:29:39.295Z,18.40
2018-07-23T01:30:13.226Z,18.40
2018-07-23T01:30:47.067Z,18.40
2018-07-23T01:31:21.296Z,18.40
2018-07-23T01:31:55.167Z,18.30
2018-07-23T01:32:29.330Z,18.30
2018-07-23T01:33:03.207Z,18.30
2018-07-23T01:33:37.085Z,18.30
2018-07-23T01:34:10.996Z,18.30
2018-07-23T01:34:44.941Z,18.30
2018-07-23T01:35:18.847Z,18.30
2018-07-23T01:35:52.711Z,18.30
2018-07-23T01:36:26.554Z,18.30
2018-07-23T01:37:00.452Z,18.30
2018-07-23T01:37:34.362Z,18.20
2018-07-23T01:38:08.621Z,18.20
2018-07-23T01:38:42.574Z,18.20
2018-07-23T01:39:16.619Z,18.20
2018-07-23T01:39:50.472Z,18.20
2018-07-23T01:40:24.351Z,18.20
2018-07-23T01:40:58.535Z,18.20
2018-07-23T01:41:32.701Z,18.20
2018-07-23T01:42:06.941Z,18.20
2018-07-23T01:42:40.867Z,18.20
2018-07-23T01:43:15.054Z,18.20
2018-07-23T01:43:49.186Z,18.20
2018-07-23T01:44:23.489Z,18.20
2018-07-23T01:44:57.377Z,18.20
2018-07-23T01:45:31.276Z,18.20
2018-07-23T01:46:05.498Z,18.20
2018-07-23T01:46:39.701Z,18.20
2018-07-23T01:47:13.903Z,18.20
2018-07-23T01:47:47.781Z,18.10
2018-07-23T01:48:21.621Z,18.10
2018-07-23T01:48:55.481Z,18.20
2018-07-23T01:49:29.378Z,18.10
2018-07-23T01:50:03.288Z,18.10
2018-07-23T01:50:37.129Z,18.10
2018-07-23T01:51:11.033Z,18.10
2018-07-23T01:51:44.900Z,18.10
2018-07-23T01:52:18.767Z,18.10
2018-07-23T01:52:52.747Z,18.10
2018-07-23T01:53:26.609Z,18.10
2018-07-23T01:54:00.860Z,18.10
2018-07-23T01:54:35.199Z,18.10
2018-07-23T01:55:09.089Z,18.00
2018-07-23T01:55:42.957Z,18.00
2018-07-23T01:56:50.693Z,18.00
2018-07-23T01:57:24.566Z,18.00
2018-07-23T01:57:58.460Z,18.00
2018-07-23T01:58:32.789Z,18.00
2018-07-23T01:59:06.987Z,18.00
2018-07-23T01:59:40.851Z,18.00
2018-07-23T02:00:15.065Z,18.00
2018-07-23T02:00:48.931Z,18.00
2018-07-23T02:01:22.769Z,18.00
2018-07-23T02:01:57.566Z,18.00
2018-07-23T02:02:31.752Z,18.00
2018-07-23T02:03:05.665Z,18.00
2018-07-23T02:03:40.360Z,18.00
2018-07-23T02:04:14.253Z,18.00
2018-07-23T02:04:48.135Z,18.00
2018-07-23T02:05:22.051Z,18.00
2018-07-23T02:05:55.927Z,17.90
2018-07-23T02:06:29.850Z,17.90
2018-07-23T02:07:04.088Z,17.90
2018-07-23T02:07:37.979Z,17.90
2018-07-23T02:08:11.930Z,18.00
2018-07-23T02:08:45.905Z,17.90
2018-07-23T02:09:20.117Z,17.90
2018-07-23T02:09:53.985Z,17.90
2018-07-23T02:10:27.937Z,17.90
2018-07-23T02:11:01.797Z,17.90
2018-07-23T02:11:35.756Z,17.90
2018-07-23T02:12:10.311Z,17.90
2018-07-23T02:12:44.215Z,17.90
2018-07-23T02:13:18.151Z,17.90
2018-07-23T02:13:52.051Z,17.90
2018-07-23T02:14:25.961Z,17.90
2018-07-23T02:14:59.873Z,17.90
2018-07-23T02:15:34.079Z,17.90
2018-07-23T02:16:07.968Z,17.90
2018-07-23T02:16:41.847Z,17.90
2018-07-23T02:17:15.737Z,17.90
2018-07-23T02:17:49.989Z,17.90
2018-07-23T02:19:27.135Z,17.90
2018-07-23T02:20:01.350Z,17.90
2018-07-23T02:20:35.287Z,17.90
2018-07-23T02:21:09.544Z,17.80
2018-07-23T02:21:43.433Z,17.80
2018-07-23T02:22:17.315Z,17.80
2018-07-23T02:22:51.839Z,17.80
2018-07-23T02:23:26.033Z,17.80
2018-07-23T02:23:59.945Z,17.80
2018-07-23T02:24:33.833Z,17.80
2018-07-23T02:25:07.749Z,17.80
2018-07-23T02:25:41.990Z,17.80
2018-07-23T02:26:15.996Z,17.80
2018-07-23T02:26:50.211Z,17.80
2018-07-23T02:27:24.444Z,17.80
2018-07-23T02:27:58.367Z,17.80
2018-07-23T02:28:32.240Z,17.80
2018-07-23T02:29:06.157Z,17.80
2018-07-23T02:29:40.086Z,17.80
2018-07-23T02:30:14.320Z,17.80
2018-07-23T02:30:48.573Z,17.80
2018-07-23T02:31:22.453Z,17.80
2018-07-23T02:31:56.369Z,17.80
2018-07-23T02:32:30.961Z,17.80
2018-07-23T02:33:05.233Z,17.80
2018-07-23T02:33:39.153Z,17.80
2018-07-23T02:34:13.008Z,17.80
2018-07-23T02:34:46.875Z,17.80
2018-07-23T02:35:20.739Z,17.80
2018-07-23T02:35:54.603Z,17.80
2018-07-23T02:36:28.425Z,17.70
2018-07-23T02:37:02.337Z,17.80
2018-07-23T02:37:36.211Z,17.80
2018-07-23T02:38:10.081Z,17.80
2018-07-23T02:38:43.985Z,17.80
2018-07-23T02:39:18.183Z,17.80
2018-07-23T02:39:52.089Z,17.80
2018-07-23T02:40:26.067Z,17.80
2018-07-23T02:41:00.272Z,17.80
2018-07-23T02:41:34.173Z,17.80
2018-07-23T02:42:08.313Z,17.80
2018-07-23T02:42:42.201Z,17.80
2018-07-23T02:43:16.418Z,17.80
2018-07-23T02:43:50.627Z,17.80
2018-07-23T02:44:24.489Z,17.70
2018-07-23T02:44:59.169Z,17.80
2018-07-23T02:45:33.023Z,17.70
2018-07-23T02:46:07.505Z,17.70
2018-07-23T02:46:41.369Z,17.70
2018-07-23T02:47:15.817Z,17.70
2018-07-23T02:47:50.095Z,17.70
2018-07-23T02:48:24.093Z,17.70
2018-07-23T02:48:57.965Z,17.70
2018-07-23T02:49:32.694Z,17.70
2018-07-23T02:50:07.067Z,17.70
2018-07-23T02:50:41.905Z,17.70
2018-07-23T02:51:16.398Z,17.70
2018-07-23T02:51:50.674Z,17.60
2018-07-23T02:52:24.912Z,17.60
2018-07-23T02:52:58.949Z,17.60
2018-07-23T02:53:32.812Z,17.60
2018-07-23T02:54:07.120Z,17.60
2018-07-23T02:54:41.365Z,17.60
2018-07-23T02:55:15.611Z,17.70
2018-07-23T02:55:50.149Z,17.60
2018-07-23T02:56:24.064Z,17.70
2018-07-23T02:56:57.957Z,17.60
2018-07-23T02:57:31.837Z,17.60
2018-07-23T02:58:05.787Z,17.60
2018-07-23T02:59:14.583Z,17.60
2018-07-23T02:59:48.795Z,17.60
2018-07-23T03:00:23.358Z,17.60
2018-07-23T03:00:57.290Z,17.60
2018-07-23T03:01:31.268Z,17.60
2018-07-23T03:02:05.513Z,17.60
2018-07-23T03:02:39.729Z,17.60
2018-07-23T03:03:13.620Z,17.60
2018-07-23T03:03:47.528Z,17.60
2018-07-23T03:04:21.538Z,17.60
2018-07-23T03:04:55.480Z,17.60
2018-07-23T03:05:29.418Z,17.70
2018-07-23T03:06:03.615Z,17.60
2018-07-23T03:06:38.513Z,17.60
2018-07-23T03:07:12.781Z,17.60
2018-07-23T03:07:46.711Z,17.60
2018-07-23T03:08:20.617Z,17.60
2018-07-23T03:08:55.100Z,17.60
2018-07-23T03:09:29.343Z,17.60
2018-07-23T03:10:03.225Z,17.60
2018-07-23T03:10:37.433Z,17.60
2018-07-23T03:11:11.431Z,17.50
2018-07-23T03:11:45.348Z,17.50
2018-07-23T03:12:19.738Z,17.50
2018-07-23T03:12:53.929Z,17.50
2018-07-23T03:13:27.862Z,17.50
2018-07-23T03:14:02.548Z,17.50
2018-07-23T03:14:37.186Z,17.50
2018-07-23T03:15:11.491Z,17.50
2018-07-23T03:15:45.414Z,17.50
2018-07-23T03:16:19.807Z,17.50
2018-07-23T03:16:54.169Z,17.50
2018-07-23T03:17:28.778Z,17.50
2018-07-23T03:18:03.099Z,17.50
2018-07-23T03:18:36.976Z,17.50
2018-07-23T03:19:10.860Z,17.50
2018-07-23T03:19:44.725Z,17.50
2018-07-23T03:20:18.676Z,17.50
2018-07-23T03:20:53.070Z,17.50
2018-07-23T03:21:26.946Z,17.50
2018-07-23T03:22:01.230Z,17.50
2018-07-23T03:22:35.607Z,17.60
2018-07-23T03:23:09.468Z,17.60
2018-07-23T03:23:43.672Z,17.50
2018-07-23T03:24:17.645Z,17.50
2018-07-23T03:24:51.520Z,17.50
2018-07-23T03:25:25.436Z,17.50
2018-07-23T03:25:59.337Z,17.60
2018-07-23T03:26:33.223Z,17.60
2018-07-23T03:27:07.959Z,17.60
2018-07-23T03:27:41.814Z,17.60
2018-07-23T03:28:15.727Z,17.60
2018-07-23T03:28:49.625Z,17.60
2018-07-23T03:29:23.615Z,17.60
2018-07-23T03:29:57.837Z,17.60
2018-07-23T03:30:31.691Z,17.60
2018-07-23T03:31:06.288Z,17.60
2018-07-23T03:31:40.506Z,17.60
2018-07-23T03:32:14.712Z,17.60
2018-07-23T03:32:49.033Z,17.70
2018-07-23T03:33:22.933Z,17.70
2018-07-23T03:33:56.825Z,17.70
2018-07-23T03:34:30.716Z,17.70
2018-07-23T03:35:04.717Z,17.70
2018-07-23T03:35:38.609Z,17.70
2018-07-23T03:36:12.830Z,17.70
2018-07-23T03:36:46.776Z,17.70
2018-07-23T03:37:21.023Z,17.70
2018-07-23T03:37:54.961Z,17.70
2018-07-23T03:38:29.185Z,17.70
2018-07-23T03:39:03.091Z,17.80
2018-07-23T03:39:36.962Z,17.80
2018-07-23T03:40:10.898Z,17.80
2018-07-23T03:40:44.792Z,17.80
2018-07-23T03:41:18.707Z,17.80
2018-07-23T03:41:52.621Z,17.80
2018-07-23T03:42:26.457Z,17.80
2018-07-23T03:43:00.369Z,17.90
2018-07-23T03:43:34.670Z,17.90
2018-07-23T03:44:08.934Z,17.90
2018-07-23T03:44:43.304Z,17.90
2018-07-23T03:45:17.198Z,18.00
2018-07-23T03:45:51.382Z,18.00
2018-07-23T03:46:25.286Z,18.10
2018-07-23T03:46:59.576Z,18.10
2018-07-23T03:47:33.430Z,18.20
2018-07-23T03:48:07.412Z,18.20
2018-07-23T03:48:41.668Z,18.30
2018-07-23T03:49:15.581Z,18.40
2018-07-23T03:49:49.475Z,18.40
2018-07-23T03:50:23.325Z,18.40
2018-07-23T03:50:57.734Z,18.50
2018-07-23T03:51:31.672Z,18.50
2018-07-23T03:52:06.108Z,18.60
2018-07-23T03:52:40.020Z,18.60
2018-07-23T03:53:13.926Z,18.70
2018-07-23T03:53:47.780Z,18.80
2018-07-23T03:54:22.060Z,18.80
2018-07-23T03:54:55.920Z,18.80
2018-07-23T03:55:30.136Z,18.90
2018-07-23T03:56:04.000Z,19.00
2018-07-23T03:56:38.234Z,19.00
2018-07-23T03:57:12.134Z,19.10
2018-07-23T03:57:46.313Z,19.10
2018-07-23T03:58:20.482Z,19.20
2018-07-23T03:58:54.344Z,19.30
2018-07-23T03:59:28.222Z,19.30
2018-07-23T04:00:02.439Z,19.40
2018-07-23T04:00:36.620Z,19.40
2018-07-23T04:01:10.499Z,19.50
2018-07-23T04:01:44.410Z,19.50
2018-07-23T04:02:18.588Z,19.60
2018-07-23T04:02:52.800Z,19.60
2018-07-23T04:03:26.719Z,19.70
2018-07-23T04:04:00.613Z,19.70
2018-07-23T04:04:34.495Z,19.80
2018-07-23T04:05:08.786Z,19.90
2018-07-23T04:05:43.008Z,19.90
2018-07-23T04:06:16.873Z,20.00
2018-07-23T04:06:50.798Z,20.10
2018-07-23T04:07:24.698Z,20.10
2018-07-23T04:07:58.556Z,20.20
2018-07-23T04:08:32.769Z,20.20
2018-07-23T04:09:08.493Z,20.30
2018-07-23T04:09:42.699Z,20.30
2018-07-23T04:10:16.592Z,20.40
2018-07-23T04:10:50.554Z,20.40
2018-07-23T04:11:25.620Z,20.50
2018-07-23T04:11:59.530Z,20.50
2018-07-23T04:12:33.790Z,20.60
2018-07-23T04:13:07.716Z,20.60
2018-07-23T04:13:41.934Z,20.60
2018-07-23T04:14:16.080Z,20.70
2018-07-23T04:14:50.283Z,20.80
2018-07-23T04:15:24.508Z,20.80
2018-07-23T04:15:58.442Z,20.90
2018-07-23T04:16:32.656Z,21.00
2018-07-23T04:17:06.858Z,21.00
2018-07-23T04:17:41.264Z,21.10
2018-07-23T04:18:15.134Z,21.10
2018-07-23T04:18:49.358Z,21.20
2018-07-23T04:19:23.235Z,21.20
2018-07-23T04:19:57.121Z,21.20
2018-07-23T04:20:32.313Z,21.30
2018-07-23T04:21:06.617Z,21.30
2018-07-23T04:21:40.866Z,21.40
2018-07-23T04:22:14.748Z,21.40
2018-07-23T04:22:48.979Z,21.40
2018-07-23T04:23:22.854Z,21.40
2018-07-23T04:23:56.794Z,21.50
2018-07-23T04:24:30.682Z,21.50
2018-07-23T04:25:04.617Z,21.50
2018-07-23T04:25:38.530Z,21.50
2018-07-23T04:26:12.736Z,21.60
2018-07-23T04:26:46.629Z,21.60
2018-07-23T04:27:20.566Z,21.60
2018-07-23T04:27:54.436Z,21.60
2018-07-23T04:28:28.313Z,21.70
2018-07-23T04:29:02.204Z,21.70
2018-07-23T04:29:36.408Z,21.80
2018-07-23T04:30:10.589Z,21.80
2018-07-23T04:30:44.811Z,21.90
2018-07-23T04:31:19.032Z,22.00
2018-07-23T04:31:52.948Z,22.00
2018-07-23T04:32:26.924Z,22.10
2018-07-23T04:33:00.880Z,22.10
2018-07-23T04:33:34.758Z,22.10
2018-07-23T04:34:09.040Z,22.20
2018-07-23T04:34:42.905Z,22.20
2018-07-23T04:35:16.746Z,22.30
2018-07-23T04:35:50.630Z,22.40
2018-07-23T04:36:24.496Z,22.40
2018-07-23T04:36:58.344Z,22.50
2018-07-23T04:37:32.271Z,22.50
2018-07-23T04:38:06.160Z,22.60
2018-07-23T04:38:40.028Z,22.60
2018-07-23T04:39:14.248Z,22.70
2018-07-23T04:39:48.149Z,22.70
2018-07-23T04:40:22.434Z,22.80
2018-07-23T04:40:56.649Z,22.80
2018-07-23T04:41:30.502Z,22.80
2018-07-23T04:42:04.732Z,22.90
2018-07-23T04:42:38.999Z,23.00
2018-07-23T04:43:13.214Z,23.00
2018-07-23T04:43:47.164Z,23.00
2018-07-23T04:44:21.053Z,23.10
2018-07-23T04:44:55.266Z,23.10
2018-07-23T04:45:29.141Z,23.20
2018-07-23T04:46:03.004Z,23.20
2018-07-23T04:46:36.878Z,23.20
2018-07-23T04:47:10.810Z,23.30
2018-07-23T04:47:44.734Z,23.30
2018-07-23T04:48:18.614Z,23.30
2018-07-23T04:48:52.508Z,23.30
2018-07-23T04:49:26.372Z,23.40
2018-07-23T04:50:00.301Z,23.40
2018-07-23T04:50:34.198Z,23.40
2018-07-23T04:51:08.566Z,23.50
2018-07-23T04:51:42.801Z,23.40
2018-07-23T04:52:16.652Z,23.40
2018-07-23T04:52:50.531Z,23.50
2018-07-23T04:53:24.805Z,23.50
2018-07-23T04:53:58.992Z,23.60
2018-07-23T04:54:33.215Z,23.60
2018-07-23T04:55:07.453Z,23.60
2018-07-23T04:55:41.640Z,23.70
2018-07-23T04:56:49.374Z,23.80
2018-07-23T04:57:23.366Z,23.90
2018-07-23T04:57:57.602Z,23.90
2018-07-23T04:58:31.468Z,24.00
2018-07-23T04:59:05.336Z,24.10
2018-07-23T04:59:39.528Z,24.20
2018-07-23T05:00:13.753Z,24.30
2018-07-23T05:00:47.966Z,24.30
2018-07-23T05:01:21.858Z,24.40
2018-07-23T05:01:55.763Z,24.40
2018-07-23T05:02:29.992Z,24.50
2018-07-23T05:03:04.555Z,24.50
2018-07-23T05:03:38.440Z,24.60
2018-07-23T05:04:12.640Z,24.60
2018-07-23T05:04:46.830Z,24.70
2018-07-23T05:05:21.019Z,24.70
2018-07-23T05:05:55.240Z,24.80
2018-07-23T05:06:29.100Z,24.90
2018-07-23T05:07:02.954Z,24.90
2018-07-23T05:07:37.244Z,24.90
2018-07-23T05:08:11.166Z,25.00
2018-07-23T05:08:45.437Z,25.00
2018-07-23T05:09:19.482Z,25.10
2018-07-23T05:09:53.400Z,25.10
2018-07-23T05:10:27.270Z,25.10
2018-07-23T05:11:01.140Z,25.10
2018-07-23T05:11:35.352Z,25.10
2018-07-23T05:12:09.238Z,25.20
2018-07-23T05:12:43.130Z,25.10
2018-07-23T05:13:17.113Z,25.10
2018-07-23T05:13:50.996Z,25.10
2018-07-23T05:14:24.903Z,25.20
2018-07-23T05:14:58.760Z,25.20
2018-07-23T05:15:33.014Z,25.20
2018-07-23T05:16:06.989Z,25.20
2018-07-23T05:16:41.132Z,25.10
2018-07-23T05:17:15.547Z,25.10
2018-07-23T05:17:49.814Z,25.10
2018-07-23T05:18:23.708Z,25.10
2018-07-23T05:18:57.586Z,25.10
2018-07-23T05:19:31.806Z,25.00
2018-07-23T05:20:05.784Z,25.00
2018-07-23T05:20:39.695Z,25.00
2018-07-23T05:21:13.638Z,24.90
2018-07-23T05:21:47.502Z,24.90
2018-07-23T05:22:21.405Z,24.90
2018-07-23T05:22:55.361Z,24.90
2018-07-23T05:23:29.242Z,24.90
2018-07-23T05:24:03.573Z,24.90
2018-07-23T05:24:37.585Z,24.90
2018-07-23T05:25:11.912Z,24.90
2018-07-23T05:25:45.795Z,24.90
2018-07-23T05:26:19.787Z,24.90
2018-07-23T05:26:53.854Z,24.80
2018-07-23T05:27:27.727Z,24.90
2018-07-23T05:28:01.619Z,24.90
2018-07-23T05:28:35.552Z,25.00
2018-07-23T05:29:09.548Z,25.10
2018-07-23T05:29:43.768Z,25.00
2018-07-23T05:30:17.645Z,24.90
2018-07-23T05:30:51.560Z,25.00
2018-07-23T05:31:25.463Z,24.90
2018-07-23T05:31:59.350Z,25.00
2018-07-23T05:32:33.550Z,25.10
2018-07-23T05:33:07.617Z,25.00
2018-07-23T05:33:41.526Z,25.00
2018-07-23T05:34:15.792Z,24.90
2018-07-23T05:34:49.750Z,25.00
2018-07-23T05:35:23.641Z,25.00
2018-07-23T05:35:57.514Z,25.10
2018-07-23T05:36:31.786Z,25.10
2018-07-23T05:37:06.372Z,25.10
2018-07-23T05:37:40.434Z,25.00
2018-07-23T05:38:14.684Z,25.10
2018-07-23T05:38:48.952Z,25.10
2018-07-23T05:39:23.168Z,25.10
2018-07-23T05:39:57.358Z,25.20
2018-07-23T05:40:31.540Z,25.30
2018-07-23T05:41:05.458Z,25.30
2018-07-23T05:41:39.722Z,25.20
2018-07-23T05:42:13.596Z,25.20
2018-07-23T05:42:47.824Z,25.20
2018-07-23T05:43:21.686Z,25.20
2018-07-23T05:43:56.330Z,25.20
2018-07-23T05:44:30.466Z,25.20
2018-07-23T05:45:04.682Z,25.30
2018-07-23T05:45:38.848Z,25.30
2018-07-23T05:46:12.760Z,25.20
2018-07-23T05:46:46.596Z,25.20
2018-07-23T05:47:20.844Z,25.10
2018-07-23T05:47:54.750Z,25.00
2018-07-23T05:48:28.976Z,25.00
2018-07-23T05:49:03.224Z,24.90
2018-07-23T05:49:37.560Z,24.90
2018-07-23T05:50:11.542Z,24.90
2018-07-23T05:50:45.778Z,25.00
2018-07-23T05:51:19.634Z,24.90
2018-07-23T05:51:53.530Z,24.90
2018-07-23T05:52:27.720Z,25.00
2018-07-23T05:53:02.236Z,25.00
2018-07-23T05:53:36.580Z,25.10
2018-07-23T05:54:10.644Z,25.10
2018-07-23T05:54:44.946Z,25.10
2018-07-23T05:55:18.840Z,25.20
2018-07-23T05:55:53.084Z,25.20
2018-07-23T05:56:27.622Z,25.20
2018-07-23T05:57:01.512Z,25.10
2018-07-23T05:57:35.844Z,25.10
2018-07-23T05:58:09.848Z,25.10
2018-07-23T05:58:43.747Z,25.10
2018-07-23T05:59:17.712Z,25.10
2018-07-23T05:59:51.586Z,25.10
2018-07-23T06:00:25.476Z,25.20
2018-07-23T06:00:59.329Z,25.30
2018-07-23T06:01:33.390Z,25.30
2018-07-23T06:02:07.692Z,25.30
2018-07-23T06:02:41.930Z,25.30
2018-07-23T06:03:15.824Z,25.30
2018-07-23T06:03:49.708Z,25.30
2018-07-23T06:04:23.632Z,25.20
2018-07-23T06:04:57.464Z,25.20
2018-07-23T06:05:31.386Z,25.10
2018-07-23T06:06:05.422Z,25.20
2018-07-23T06:06:39.330Z,25.20
2018-07-23T06:07:13.394Z,25.20
2018-07-23T06:07:48.026Z,25.20
2018-07-23T06:08:21.902Z,25.20
2018-07-23T06:08:55.774Z,25.20
2018-07-23T06:09:30.084Z,25.20
2018-07-23T06:10:04.422Z,25.20
2018-07-23T06:10:38.658Z,25.20
2018-07-23T06:11:12.940Z,25.20
2018-07-23T06:11:46.886Z,25.20
2018-07-23T06:12:21.126Z,25.20
2018-07-23T06:12:55.496Z,25.20
2018-07-23T06:14:03.592Z,25.30
2018-07-23T06:14:37.590Z,25.30
2018-07-23T06:15:11.760Z,25.30
2018-07-23T06:15:45.974Z,25.30
2018-07-23T06:16:19.940Z,25.30
2018-07-23T06:16:54.166Z,25.40
2018-07-23T06:18:02.470Z,25.30
2018-07-23T06:18:36.656Z,25.30
2018-07-23T06:19:10.904Z,25.40
2018-07-23T06:19:45.167Z,25.30
2018-07-23T06:20:19.005Z,25.30
2018-07-23T06:20:52.937Z,25.30
2018-07-23T06:21:26.820Z,25.20
2018-07-23T06:22:01.038Z,25.20
2018-07-23T06:22:35.290Z,25.10
2018-07-23T06:23:09.166Z,25.00
2018-07-23T06:23:43.053Z,25.00
2018-07-23T06:24:16.932Z,25.00
2018-07-23T06:24:50.866Z,25.00
2018-07-23T06:25:24.847Z,24.90
2018-07-23T06:25:59.568Z,24.90
2018-07-23T06:26:33.428Z,24.80
2018-07-23T06:27:07.938Z,24.80
2018-07-23T06:27:42.178Z,24.70
2018-07-23T06:28:16.034Z,24.60
2018-07-23T06:28:49.924Z,24.60
2018-07-23T06:29:23.802Z,24.70
2018-07-23T06:29:57.716Z,24.60
2018-07-23T06:30:31.599Z,24.60
2018-07-23T06:31:05.906Z,24.50
2018-07-23T06:31:39.999Z,24.50
2018-07-23T06:32:14.349Z,24.40
2018-07-23T06:32:48.376Z,24.30
2018-07-23T06:33:22.252Z,24.30
2018-07-23T06:33:56.313Z,24.20
2018-07-23T06:34:30.667Z,24.10
2018-07-23T06:35:04.610Z,24.00
2018-07-23T06:35:38.489Z,24.00
2018-07-23T06:36:12.418Z,23.90
2018-07-23T06:36:46.332Z,23.90
2018-07-23T06:37:20.230Z,23.80
2018-07-23T06:37:54.484Z,23.70
2018-07-23T06:38:28.386Z,23.70
2018-07-23T06:39:02.675Z,23.60
2018-07-23T06:39:36.932Z,23.60
2018-07-23T06:40:10.860Z,23.60
2018-07-23T06:40:44.768Z,23.50
2018-07-23T06:41:18.672Z,23.50
2018-07-23T06:41:54.186Z,23.40
2018-07-23T06:42:28.794Z,23.40
2018-07-23T06:43:02.669Z,23.30
2018-07-23T06:43:36.918Z,23.40
2018-07-23T06:44:10.827Z,23.30
2018-07-23T06:44:44.687Z,23.30
2018-07-23T06:45:18.640Z,23.30
2018-07-23T06:45:52.872Z,23.30
2018-07-23T06:46:26.728Z,23.30
2018-07-23T06:47:01.056Z,23.30
2018-07-23T06:47:34.912Z,23.30
2018-07-23T06:48:09.180Z,23.30
2018-07-23T06:48:43.086Z,23.30
2018-07-23T06:49:16.987Z,23.30
2018-07-23T06:49:50.858Z,23.30
2018-07-23T06:50:24.768Z,23.30
2018-07-23T06:50:58.633Z,23.30
2018-07-23T06:51:32.882Z,23.30
2018-07-23T06:52:07.628Z,23.30
2018-07-23T06:52:48.131Z,23.30
2018-07-23T06:53:22.074Z,23.20
2018-07-23T06:54:29.718Z,23.20
2018-07-23T06:55:03.930Z,23.20
2018-07-23T06:55:37.813Z,23.20
2018-07-23T06:56:11.695Z,23.20
2018-07-23T06:56:45.643Z,23.20
2018-07-23T06:57:19.569Z,23.30
2018-07-23T06:57:53.698Z,23.30
2018-07-23T06:58:27.575Z,23.20
2018-07-23T06:59:01.797Z,23.20
2018-07-23T06:59:36.280Z,23.20
2018-07-23T07:00:10.828Z,23.20
2018-07-23T07:00:44.705Z,23.20
2018-07-23T07:01:18.586Z,23.20
2018-07-23T07:01:52.806Z,23.20
2018-07-23T07:02:26.999Z,23.30
2018-07-23T07:03:00.898Z,23.30
2018-07-23T07:03:35.081Z,23.30
2018-07-23T07:04:09.087Z,23.30
2018-07-23T07:04:42.972Z,23.30
2018-07-23T08:25:20.665Z,23.30
2018-07-23T08:25:54.641Z,24.90
2018-07-23T08:26:28.519Z,24.90
2018-07-23T08:27:02.392Z,25.00
2018-07-23T08:27:36.333Z,25.00
2018-07-23T08:28:10.870Z,25.00
2018-07-23T08:28:45.301Z,25.10
2018-07-23T08:29:19.599Z,25.20
2018-07-23T08:29:53.497Z,25.30
2018-07-23T08:30:27.765Z,25.40
2018-07-23T08:31:01.679Z,25.50
2018-07-23T08:31:35.601Z,25.60
2018-07-23T08:32:10.231Z,25.60
2018-07-23T08:32:44.488Z,25.70
2018-07-23T08:33:18.378Z,25.60
2018-07-23T08:33:52.353Z,25.60
2018-07-23T08:34:26.245Z,25.60
2018-07-23T08:35:00.101Z,25.60
2018-07-23T08:35:34.299Z,25.70
2018-07-23T08:36:08.499Z,25.70
2018-07-23T08:36:42.439Z,25.70
2018-07-23T08:37:16.408Z,25.70
2018-07-23T08:37:51.121Z,25.80
2018-07-23T08:38:24.999Z,25.80
2018-07-23T08:38:59.117Z,25.90
2018-07-23T08:39:33.055Z,25.90
2018-07-23T08:40:07.203Z,26.00
2018-07-23T08:40:41.108Z,26.10
2018-07-23T08:41:14.957Z,26.10
2018-07-23T08:41:48.791Z,26.20
2018-07-23T08:42:22.707Z,26.40
2018-07-23T08:42:56.557Z,26.50
2018-07-23T08:43:30.405Z,26.50
2018-07-23T08:44:04.277Z,26.60
2018-07-23T08:44:38.485Z,26.70